sensor_id;sensor_type;location;lat;lon;timestamp;temperature;humidity
42135;DHT22;28312;43.460;11.810;2023-08-17T00:03:26;22.40;55.80
42135;DHT22;28312;43.460;11.810;2023-08-17T00:07:29;22.30;55.90
42135;DHT22;28312;43.460;11.810;2023-08-17T00:11:33;22.30;56.10
42135;DHT22;28312;43.460;11.810;2023-08-17T00:15:36;22.20;56.20
42135;DHT22;28312;43.460;11.810;2023-08-17T00:19:41;22.20;56.20
42135;DHT22;28312;43.460;11.810;2023-08-17T00:23:45;22.20;56.20
42135;DHT22;28312;43.460;11.810;2023-08-17T00:27:48;22.20;56.20
42135;DHT22;28312;43.460;11.810;2023-08-17T00:31:52;22.10;56.30
42135;DHT22;28312;43.460;11.810;2023-08-17T00:35:56;22.00;56.50
42135;DHT22;28312;43.460;11.810;2023-08-17T00:40:01;22.00;56.50
42135;DHT22;28312;43.460;11.810;2023-08-17T00:44:05;21.90;56.70
42135;DHT22;28312;43.460;11.810;2023-08-17T00:48:09;21.80;56.80
42135;DHT22;28312;43.460;11.810;2023-08-17T00:52:12;21.70;56.90
42135;DHT22;28312;43.460;11.810;2023-08-17T00:56:17;21.70;57.00
42135;DHT22;28312;43.460;11.810;2023-08-17T01:00:22;21.70;57.00
42135;DHT22;28312;43.460;11.810;2023-08-17T01:04:27;21.60;57.10
42135;DHT22;28312;43.460;11.810;2023-08-17T01:08:30;21.60;57.30
42135;DHT22;28312;43.460;11.810;2023-08-17T01:12:42;21.60;57.30
42135;DHT22;28312;43.460;11.810;2023-08-17T01:17:03;21.60;57.40
42135;DHT22;28312;43.460;11.810;2023-08-17T01:21:10;21.50;57.50
42135;DHT22;28312;43.460;11.810;2023-08-17T01:25:17;21.40;57.60
42135;DHT22;28312;43.460;11.810;2023-08-17T01:29:22;21.30;57.70
42135;DHT22;28312;43.460;11.810;2023-08-17T01:33:31;21.20;57.80
42135;DHT22;28312;43.460;11.810;2023-08-17T01:37:40;21.20;57.90
42135;DHT22;28312;43.460;11.810;2023-08-17T01:41:47;21.10;58.00
42135;DHT22;28312;43.460;11.810;2023-08-17T01:45:50;21.10;58.10
42135;DHT22;28312;43.460;11.810;2023-08-17T01:49:55;21.10;58.10
42135;DHT22;28312;43.460;11.810;2023-08-17T01:54:02;21.10;58.20
42135;DHT22;28312;43.460;11.810;2023-08-17T01:58:08;21.10;58.30
42135;DHT22;28312;43.460;11.810;2023-08-17T02:02:13;21.00;58.40
42135;DHT22;28312;43.460;11.810;2023-08-17T02:06:18;21.00;58.40
42135;DHT22;28312;43.460;11.810;2023-08-17T02:10:22;21.00;58.50
42135;DHT22;28312;43.460;11.810;2023-08-17T02:14:26;21.00;58.60
42135;DHT22;28312;43.460;11.810;2023-08-17T02:18:32;20.90;58.70
42135;DHT22;28312;43.460;11.810;2023-08-17T02:22:38;20.90;58.80
42135;DHT22;28312;43.460;11.810;2023-08-17T02:26:42;20.80;58.80
42135;DHT22;28312;43.460;11.810;2023-08-17T02:30:46;20.80;58.90
42135;DHT22;28312;43.460;11.810;2023-08-17T02:34:51;20.70;59.00
42135;DHT22;28312;43.460;11.810;2023-08-17T02:38:54;20.70;59.00
42135;DHT22;28312;43.460;11.810;2023-08-17T02:42:58;20.70;59.00
42135;DHT22;28312;43.460;11.810;2023-08-17T02:47:02;20.70;59.00
42135;DHT22;28312;43.460;11.810;2023-08-17T02:51:06;20.70;59.10
42135;DHT22;28312;43.460;11.810;2023-08-17T02:55:10;20.70;59.20
42135;DHT22;28312;43.460;11.810;2023-08-17T02:59:13;20.60;59.30
42135;DHT22;28312;43.460;11.810;2023-08-17T03:03:17;20.50;59.40
42135;DHT22;28312;43.460;11.810;2023-08-17T03:07:21;20.50;59.40
42135;DHT22;28312;43.460;11.810;2023-08-17T03:11:24;20.50;59.40
42135;DHT22;28312;43.460;11.810;2023-08-17T03:15:28;20.40;59.50
42135;DHT22;28312;43.460;11.810;2023-08-17T03:19:33;20.40;59.50
42135;DHT22;28312;43.460;11.810;2023-08-17T03:23:39;20.40;59.60
42135;DHT22;28312;43.460;11.810;2023-08-17T03:27:43;20.30;59.70
42135;DHT22;28312;43.460;11.810;2023-08-17T03:31:49;20.20;59.80
42135;DHT22;28312;43.460;11.810;2023-08-17T03:35:55;20.20;59.80
42135;DHT22;28312;43.460;11.810;2023-08-17T03:40:00;20.10;59.90
42135;DHT22;28312;43.460;11.810;2023-08-17T03:44:07;20.10;60.10
42135;DHT22;28312;43.460;11.810;2023-08-17T03:48:12;20.00;60.10
42135;DHT22;28312;43.460;11.810;2023-08-17T03:52:15;20.00;60.20
42135;DHT22;28312;43.460;11.810;2023-08-17T03:56:19;20.00;60.20
42135;DHT22;28312;43.460;11.810;2023-08-17T04:00:23;20.00;60.20
42135;DHT22;28312;43.460;11.810;2023-08-17T04:04:32;20.00;60.30
42135;DHT22;28312;43.460;11.810;2023-08-17T04:08:37;19.90;60.30
42135;DHT22;28312;43.460;11.810;2023-08-17T04:12:41;19.90;60.30
42135;DHT22;28312;43.460;11.810;2023-08-17T04:16:44;19.80;60.40
42135;DHT22;28312;43.460;11.810;2023-08-17T04:20:48;19.80;60.50
42135;DHT22;28312;43.460;11.810;2023-08-17T04:24:53;19.80;60.60
42135;DHT22;28312;43.460;11.810;2023-08-17T04:28:58;19.70;60.60
42135;DHT22;28312;43.460;11.810;2023-08-17T04:33:03;19.70;60.60
42135;DHT22;28312;43.460;11.810;2023-08-17T04:37:07;19.70;60.70
42135;DHT22;28312;43.460;11.810;2023-08-17T04:41:12;19.70;60.70
42135;DHT22;28312;43.460;11.810;2023-08-17T04:45:16;19.70;60.80
42135;DHT22;28312;43.460;11.810;2023-08-17T04:49:22;19.70;60.90
42135;DHT22;28312;43.460;11.810;2023-08-17T04:53:26;19.70;61.10
42135;DHT22;28312;43.460;11.810;2023-08-17T04:57:30;19.70;61.10
42135;DHT22;28312;43.460;11.810;2023-08-17T05:01:34;19.70;61.20
42135;DHT22;28312;43.460;11.810;2023-08-17T05:05:40;19.70;61.30
42135;DHT22;28312;43.460;11.810;2023-08-17T05:09:45;19.80;60.80
42135;DHT22;28312;43.460;11.810;2023-08-17T05:13:49;19.90;61.30
42135;DHT22;28312;43.460;11.810;2023-08-17T05:17:53;20.00;61.50
42135;DHT22;28312;43.460;11.810;2023-08-17T05:21:58;20.10;61.60
42135;DHT22;28312;43.460;11.810;2023-08-17T05:26:02;20.20;61.70
42135;DHT22;28312;43.460;11.810;2023-08-17T05:30:06;20.30;61.90
42135;DHT22;28312;43.460;11.810;2023-08-17T05:34:10;20.40;61.90
42135;DHT22;28312;43.460;11.810;2023-08-17T05:38:15;20.60;62.00
42135;DHT22;28312;43.460;11.810;2023-08-17T05:42:18;20.70;62.00
42135;DHT22;28312;43.460;11.810;2023-08-17T05:46:22;20.90;62.00
42135;DHT22;28312;43.460;11.810;2023-08-17T05:50:25;21.10;62.10
42135;DHT22;28312;43.460;11.810;2023-08-17T05:54:29;21.30;62.00
42135;DHT22;28312;43.460;11.810;2023-08-17T05:58:33;21.40;61.90
42135;DHT22;28312;43.460;11.810;2023-08-17T06:02:36;21.60;62.10
42135;DHT22;28312;43.460;11.810;2023-08-17T06:06:40;21.90;62.30
42135;DHT22;28312;43.460;11.810;2023-08-17T06:10:45;22.40;62.30
42135;DHT22;28312;43.460;11.810;2023-08-17T06:14:48;22.80;62.20
42135;DHT22;28312;43.460;11.810;2023-08-17T06:18:52;23.30;62.10
42135;DHT22;28312;43.460;11.810;2023-08-17T06:22:57;23.60;61.90
42135;DHT22;28312;43.460;11.810;2023-08-17T06:27:03;23.90;61.60
42135;DHT22;28312;43.460;11.810;2023-08-17T06:31:06;24.20;61.60
42135;DHT22;28312;43.460;11.810;2023-08-17T06:35:10;24.30;61.40
42135;DHT22;28312;43.460;11.810;2023-08-17T06:39:13;24.50;61.30
42135;DHT22;28312;43.460;11.810;2023-08-17T06:43:17;24.70;61.00
42135;DHT22;28312;43.460;11.810;2023-08-17T06:47:21;24.80;60.80
42135;DHT22;28312;43.460;11.810;2023-08-17T06:51:24;25.00;60.70
42135;DHT22;28312;43.460;11.810;2023-08-17T06:55:28;25.20;60.50
42135;DHT22;28312;43.460;11.810;2023-08-17T06:59:32;25.40;60.30
42135;DHT22;28312;43.460;11.810;2023-08-17T07:03:36;25.60;60.20
42135;DHT22;28312;43.460;11.810;2023-08-17T07:07:40;25.80;60.00
42135;DHT22;28312;43.460;11.810;2023-08-17T07:11:43;26.10;59.70
42135;DHT22;28312;43.460;11.810;2023-08-17T07:15:47;26.30;59.60
42135;DHT22;28312;43.460;11.810;2023-08-17T07:19:51;26.50;59.30
42135;DHT22;28312;43.460;11.810;2023-08-17T07:24:15;26.60;59.00
42135;DHT22;28312;43.460;11.810;2023-08-17T07:28:20;26.80;58.90
42135;DHT22;28312;43.460;11.810;2023-08-17T07:32:24;27.00;58.70
42135;DHT22;28312;43.460;11.810;2023-08-17T07:36:29;27.10;58.50
42135;DHT22;28312;43.460;11.810;2023-08-17T07:40:33;27.30;58.30
42135;DHT22;28312;43.460;11.810;2023-08-17T07:44:36;27.40;58.20
42135;DHT22;28312;43.460;11.810;2023-08-17T07:48:42;27.60;58.10
42135;DHT22;28312;43.460;11.810;2023-08-17T07:52:45;27.80;57.80
42135;DHT22;28312;43.460;11.810;2023-08-17T07:56:48;27.90;57.60
42135;DHT22;28312;43.460;11.810;2023-08-17T08:00:52;28.10;57.40
42135;DHT22;28312;43.460;11.810;2023-08-17T08:04:55;28.20;57.50
42135;DHT22;28312;43.460;11.810;2023-08-17T08:08:59;28.50;57.50
42135;DHT22;28312;43.460;11.810;2023-08-17T08:13:02;28.80;57.30
42135;DHT22;28312;43.460;11.810;2023-08-17T08:17:06;29.00;56.90
42135;DHT22;28312;43.460;11.810;2023-08-17T08:21:09;29.10;56.80
42135;DHT22;28312;43.460;11.810;2023-08-17T08:25:14;29.20;56.60
42135;DHT22;28312;43.460;11.810;2023-08-17T08:29:18;29.40;56.50
42135;DHT22;28312;43.460;11.810;2023-08-17T08:33:21;29.60;56.20
42135;DHT22;28312;43.460;11.810;2023-08-17T08:37:24;29.80;56.10
42135;DHT22;28312;43.460;11.810;2023-08-17T08:41:29;30.10;55.90
42135;DHT22;28312;43.460;11.810;2023-08-17T08:45:36;30.30;55.70
42135;DHT22;28312;43.460;11.810;2023-08-17T08:49:41;30.60;55.50
42135;DHT22;28312;43.460;11.810;2023-08-17T08:53:50;30.80;55.20
42135;DHT22;28312;43.460;11.810;2023-08-17T08:57:59;31.00;55.10
42135;DHT22;28312;43.460;11.810;2023-08-17T09:02:03;31.10;55.00
42135;DHT22;28312;43.460;11.810;2023-08-17T09:06:07;31.40;54.80
42135;DHT22;28312;43.460;11.810;2023-08-17T09:10:12;31.60;54.70
42135;DHT22;28312;43.460;11.810;2023-08-17T09:14:16;31.80;54.40
42135;DHT22;28312;43.460;11.810;2023-08-17T09:18:19;32.00;54.10
42135;DHT22;28312;43.460;11.810;2023-08-17T09:22:37;32.20;53.80
42135;DHT22;28312;43.460;11.810;2023-08-17T09:26:45;32.40;53.40
42135;DHT22;28312;43.460;11.810;2023-08-17T09:35:01;32.80;53.00
42135;DHT22;28312;43.460;11.810;2023-08-17T09:39:05;33.10;52.70
42135;DHT22;28312;43.460;11.810;2023-08-17T09:43:10;33.30;52.40
42135;DHT22;28312;43.460;11.810;2023-08-17T09:47:16;33.50;52.40
42135;DHT22;28312;43.460;11.810;2023-08-17T09:51:20;33.70;51.50
42135;DHT22;28312;43.460;11.810;2023-08-17T09:55:24;33.70;51.30
42135;DHT22;28312;43.460;11.810;2023-08-17T09:59:28;33.60;51.00
42135;DHT22;28312;43.460;11.810;2023-08-17T10:03:34;33.70;50.70
42135;DHT22;28312;43.460;11.810;2023-08-17T10:07:43;33.80;50.90
42135;DHT22;28312;43.460;11.810;2023-08-17T10:11:52;34.10;51.00
42135;DHT22;28312;43.460;11.810;2023-08-17T10:16:03;34.40;50.90
42135;DHT22;28312;43.460;11.810;2023-08-17T10:20:14;34.70;50.40
42135;DHT22;28312;43.460;11.810;2023-08-17T10:24:19;34.90;49.90
42135;DHT22;28312;43.460;11.810;2023-08-17T10:28:24;35.00;49.90
42135;DHT22;28312;43.460;11.810;2023-08-17T10:32:27;35.10;50.00
42135;DHT22;28312;43.460;11.810;2023-08-17T10:36:36;35.30;50.10
42135;DHT22;28312;43.460;11.810;2023-08-17T10:40:42;35.50;49.40
42135;DHT22;28312;43.460;11.810;2023-08-17T10:44:47;35.70;48.90
42135;DHT22;28312;43.460;11.810;2023-08-17T10:48:52;35.80;48.50
42135;DHT22;28312;43.460;11.810;2023-08-17T10:53:04;35.90;48.20
42135;DHT22;28312;43.460;11.810;2023-08-17T11:01:41;36.20;47.70
42135;DHT22;28312;43.460;11.810;2023-08-17T11:09:57;36.50;47.10
42135;DHT22;28312;43.460;11.810;2023-08-17T11:14:01;36.60;47.10
42135;DHT22;28312;43.460;11.810;2023-08-17T11:18:06;36.70;47.00
42135;DHT22;28312;43.460;11.810;2023-08-17T11:22:12;37.00;46.60
42135;DHT22;28312;43.460;11.810;2023-08-17T11:26:17;37.10;46.20
42135;DHT22;28312;43.460;11.810;2023-08-17T11:30:22;37.30;46.10
42135;DHT22;28312;43.460;11.810;2023-08-17T11:34:29;37.50;46.00
42135;DHT22;28312;43.460;11.810;2023-08-17T11:38:37;37.70;45.90
42135;DHT22;28312;43.460;11.810;2023-08-17T11:42:42;37.90;45.40
42135;DHT22;28312;43.460;11.810;2023-08-17T11:46:48;37.90;45.40
42135;DHT22;28312;43.460;11.810;2023-08-17T11:50:52;37.90;45.40
42135;DHT22;28312;43.460;11.810;2023-08-17T11:54:56;38.10;45.20
42135;DHT22;28312;43.460;11.810;2023-08-17T11:59:08;38.30;45.00
42135;DHT22;28312;43.460;11.810;2023-08-17T12:03:18;38.60;44.80
42135;DHT22;28312;43.460;11.810;2023-08-17T12:07:23;38.80;44.40
42135;DHT22;28312;43.460;11.810;2023-08-17T12:11:30;38.80;44.00
42135;DHT22;28312;43.460;11.810;2023-08-17T12:15:34;38.70;43.60
42135;DHT22;28312;43.460;11.810;2023-08-17T12:19:38;38.80;43.40
42135;DHT22;28312;43.460;11.810;2023-08-17T12:23:42;38.70;43.20
42135;DHT22;28312;43.460;11.810;2023-08-17T12:27:47;38.40;43.00
42135;DHT22;28312;43.460;11.810;2023-08-17T12:31:52;38.30;43.30
42135;DHT22;28312;43.460;11.810;2023-08-17T12:35:56;38.30;43.20
42135;DHT22;28312;43.460;11.810;2023-08-17T12:40:02;38.50;43.30
42135;DHT22;28312;43.460;11.810;2023-08-17T12:44:10;38.90;43.00
42135;DHT22;28312;43.460;11.810;2023-08-17T12:48:22;39.10;42.70
42135;DHT22;28312;43.460;11.810;2023-08-17T12:52:25;39.20;42.10
42135;DHT22;28312;43.460;11.810;2023-08-17T12:56:32;39.10;41.70
42135;DHT22;28312;43.460;11.810;2023-08-17T13:00:36;39.10;41.70
42135;DHT22;28312;43.460;11.810;2023-08-17T13:04:41;39.20;41.50
42135;DHT22;28312;43.460;11.810;2023-08-17T13:08:44;39.30;41.60
42135;DHT22;28312;43.460;11.810;2023-08-17T13:12:47;39.60;41.20
42135;DHT22;28312;43.460;11.810;2023-08-17T13:16:51;39.70;40.50
42135;DHT22;28312;43.460;11.810;2023-08-17T13:20:55;39.70;40.50
42135;DHT22;28312;43.460;11.810;2023-08-17T13:24:59;39.60;40.20
42135;DHT22;28312;43.460;11.810;2023-08-17T13:29:02;39.30;40.10
42135;DHT22;28312;43.460;11.810;2023-08-17T13:33:06;39.00;40.20
42135;DHT22;28312;43.460;11.810;2023-08-17T13:37:10;39.00;40.40
42135;DHT22;28312;43.460;11.810;2023-08-17T13:41:14;39.00;40.50
42135;DHT22;28312;43.460;11.810;2023-08-17T13:45:17;38.90;40.10
42135;DHT22;28312;43.460;11.810;2023-08-17T13:49:21;38.60;39.90
42135;DHT22;28312;43.460;11.810;2023-08-17T13:53:24;38.30;40.00
42135;DHT22;28312;43.460;11.810;2023-08-17T13:57:28;37.90;40.10
42135;DHT22;28312;43.460;11.810;2023-08-17T14:01:31;37.50;40.30
42135;DHT22;28312;43.460;11.810;2023-08-17T14:05:35;37.10;40.40
42135;DHT22;28312;43.460;11.810;2023-08-17T14:09:38;36.80;40.50
42135;DHT22;28312;43.460;11.810;2023-08-17T14:13:41;36.30;40.40
42135;DHT22;28312;43.460;11.810;2023-08-17T14:17:50;35.90;40.70
42135;DHT22;28312;43.460;11.810;2023-08-17T14:21:54;35.50;40.80
42135;DHT22;28312;43.460;11.810;2023-08-17T14:25:57;35.20;40.90
42135;DHT22;28312;43.460;11.810;2023-08-17T14:30:01;35.00;41.10
42135;DHT22;28312;43.460;11.810;2023-08-17T14:34:06;34.80;41.30
42135;DHT22;28312;43.460;11.810;2023-08-17T14:38:09;34.60;41.30
42135;DHT22;28312;43.460;11.810;2023-08-17T14:42:17;34.30;41.50
42135;DHT22;28312;43.460;11.810;2023-08-17T14:46:20;34.00;41.70
42135;DHT22;28312;43.460;11.810;2023-08-17T14:50:24;33.60;41.70
42135;DHT22;28312;43.460;11.810;2023-08-17T14:54:31;33.10;42.20
42135;DHT22;28312;43.460;11.810;2023-08-17T14:58:38;32.60;42.70
42135;DHT22;28312;43.460;11.810;2023-08-17T15:02:44;32.20;43.30
42135;DHT22;28312;43.460;11.810;2023-08-17T15:06:48;31.80;43.70
42135;DHT22;28312;43.460;11.810;2023-08-17T15:10:51;31.30;44.10
42135;DHT22;28312;43.460;11.810;2023-08-17T15:14:54;30.90;44.50
42135;DHT22;28312;43.460;11.810;2023-08-17T15:18:58;30.60;44.80
42135;DHT22;28312;43.460;11.810;2023-08-17T15:23:01;30.40;45.00
42135;DHT22;28312;43.460;11.810;2023-08-17T15:27:06;30.20;45.10
42135;DHT22;28312;43.460;11.810;2023-08-17T15:31:10;30.10;45.30
42135;DHT22;28312;43.460;11.810;2023-08-17T15:35:16;29.80;45.60
42135;DHT22;28312;43.460;11.810;2023-08-17T15:39:19;29.60;45.80
42135;DHT22;28312;43.460;11.810;2023-08-17T15:43:23;29.30;46.30
42135;DHT22;28312;43.460;11.810;2023-08-17T15:47:26;29.10;46.50
42135;DHT22;28312;43.460;11.810;2023-08-17T15:51:30;29.00;46.80
42135;DHT22;28312;43.460;11.810;2023-08-17T15:55:33;28.70;47.10
42135;DHT22;28312;43.460;11.810;2023-08-17T15:59:37;28.50;47.40
42135;DHT22;28312;43.460;11.810;2023-08-17T16:03:42;28.30;47.60
42135;DHT22;28312;43.460;11.810;2023-08-17T16:07:46;28.20;47.70
42135;DHT22;28312;43.460;11.810;2023-08-17T16:11:49;28.10;47.90
42135;DHT22;28312;43.460;11.810;2023-08-17T16:15:52;28.10;48.00
42135;DHT22;28312;43.460;11.810;2023-08-17T16:19:56;28.00;48.10
42135;DHT22;28312;43.460;11.810;2023-08-17T16:23:59;27.90;48.20
42135;DHT22;28312;43.460;11.810;2023-08-17T16:28:03;27.70;48.40
42135;DHT22;28312;43.460;11.810;2023-08-17T16:32:10;27.70;48.50
42135;DHT22;28312;43.460;11.810;2023-08-17T16:36:14;27.70;48.60
42135;DHT22;28312;43.460;11.810;2023-08-17T16:40:17;27.70;48.80
42135;DHT22;28312;43.460;11.810;2023-08-17T16:44:40;27.70;48.90
42135;DHT22;28312;43.460;11.810;2023-08-17T16:48:44;27.60;48.70
42135;DHT22;28312;43.460;11.810;2023-08-17T16:52:47;27.60;49.00
42135;DHT22;28312;43.460;11.810;2023-08-17T16:56:51;27.80;49.20
42135;DHT22;28312;43.460;11.810;2023-08-17T17:00:56;28.10;49.10
42135;DHT22;28312;43.460;11.810;2023-08-17T17:04:59;28.50;49.00
42135;DHT22;28312;43.460;11.810;2023-08-17T17:09:03;28.90;48.90
42135;DHT22;28312;43.460;11.810;2023-08-17T17:13:07;29.20;48.60
42135;DHT22;28312;43.460;11.810;2023-08-17T17:17:10;29.60;48.40
42135;DHT22;28312;43.460;11.810;2023-08-17T17:21:14;29.70;48.20
42135;DHT22;28312;43.460;11.810;2023-08-17T17:25:17;29.90;48.10
42135;DHT22;28312;43.460;11.810;2023-08-17T17:29:21;30.00;48.00
42135;DHT22;28312;43.460;11.810;2023-08-17T17:33:24;30.10;48.00
42135;DHT22;28312;43.460;11.810;2023-08-17T17:37:28;30.10;47.90
42135;DHT22;28312;43.460;11.810;2023-08-17T17:41:31;30.10;47.90
42135;DHT22;28312;43.460;11.810;2023-08-17T17:45:35;30.00;47.80
42135;DHT22;28312;43.460;11.810;2023-08-17T17:49:38;29.80;47.80
42135;DHT22;28312;43.460;11.810;2023-08-17T17:53:42;29.60;47.90
42135;DHT22;28312;43.460;11.810;2023-08-17T17:57:46;29.50;48.10
42135;DHT22;28312;43.460;11.810;2023-08-17T18:01:49;29.30;48.20
42135;DHT22;28312;43.460;11.810;2023-08-17T18:05:59;29.10;48.40
42135;DHT22;28312;43.460;11.810;2023-08-17T18:10:46;28.80;48.60
42135;DHT22;28312;43.460;11.810;2023-08-17T18:14:50;28.60;48.80
42135;DHT22;28312;43.460;11.810;2023-08-17T18:18:58;28.40;48.90
42135;DHT22;28312;43.460;11.810;2023-08-17T18:23:01;28.20;49.10
42135;DHT22;28312;43.460;11.810;2023-08-17T18:27:05;28.10;49.20
42135;DHT22;28312;43.460;11.810;2023-08-17T18:31:10;27.80;49.40
42135;DHT22;28312;43.460;11.810;2023-08-17T18:35:14;27.60;49.50
42135;DHT22;28312;43.460;11.810;2023-08-17T18:39:20;27.50;49.70
42135;DHT22;28312;43.460;11.810;2023-08-17T18:43:25;27.30;49.70
42135;DHT22;28312;43.460;11.810;2023-08-17T18:47:29;27.10;49.90
42135;DHT22;28312;43.460;11.810;2023-08-17T18:51:34;27.00;50.00
42135;DHT22;28312;43.460;11.810;2023-08-17T18:55:38;26.90;50.30
42135;DHT22;28312;43.460;11.810;2023-08-17T18:59:43;26.80;50.60
42135;DHT22;28312;43.460;11.810;2023-08-17T19:03:48;26.60;50.80
42135;DHT22;28312;43.460;11.810;2023-08-17T19:07:52;26.60;51.00
42135;DHT22;28312;43.460;11.810;2023-08-17T19:11:56;26.50;51.10
42135;DHT22;28312;43.460;11.810;2023-08-17T19:15:59;26.30;51.30
42135;DHT22;28312;43.460;11.810;2023-08-17T19:20:04;26.10;51.50
42135;DHT22;28312;43.460;11.810;2023-08-17T19:24:12;26.00;51.70
42135;DHT22;28312;43.460;11.810;2023-08-17T19:28:16;25.80;51.80
42135;DHT22;28312;43.460;11.810;2023-08-17T19:32:20;25.60;52.10
42135;DHT22;28312;43.460;11.810;2023-08-17T19:36:24;25.60;52.20
42135;DHT22;28312;43.460;11.810;2023-08-17T19:40:27;25.50;52.40
42135;DHT22;28312;43.460;11.810;2023-08-17T19:44:31;25.40;52.50
42135;DHT22;28312;43.460;11.810;2023-08-17T19:48:37;25.30;52.60
42135;DHT22;28312;43.460;11.810;2023-08-17T19:52:42;25.10;52.80
42135;DHT22;28312;43.460;11.810;2023-08-17T19:56:45;25.10;52.70
42135;DHT22;28312;43.460;11.810;2023-08-17T20:00:49;24.90;53.00
42135;DHT22;28312;43.460;11.810;2023-08-17T20:04:52;24.70;53.10
42135;DHT22;28312;43.460;11.810;2023-08-17T20:08:56;24.60;53.30
42135;DHT22;28312;43.460;11.810;2023-08-17T20:12:59;24.40;53.60
42135;DHT22;28312;43.460;11.810;2023-08-17T20:17:03;24.30;53.70
42135;DHT22;28312;43.460;11.810;2023-08-17T20:21:06;24.20;53.90
42135;DHT22;28312;43.460;11.810;2023-08-17T20:25:10;24.10;54.10
42135;DHT22;28312;43.460;11.810;2023-08-17T20:29:15;24.10;54.10
42135;DHT22;28312;43.460;11.810;2023-08-17T20:33:19;23.90;54.20
42135;DHT22;28312;43.460;11.810;2023-08-17T20:37:22;23.80;54.50
42135;DHT22;28312;43.460;11.810;2023-08-17T20:41:26;23.70;54.60
42135;DHT22;28312;43.460;11.810;2023-08-17T20:45:29;23.70;54.60
42135;DHT22;28312;43.460;11.810;2023-08-17T20:49:33;23.60;54.70
42135;DHT22;28312;43.460;11.810;2023-08-17T20:53:36;23.60;54.80
42135;DHT22;28312;43.460;11.810;2023-08-17T20:57:40;23.40;54.90
42135;DHT22;28312;43.460;11.810;2023-08-17T21:01:44;23.30;55.10
42135;DHT22;28312;43.460;11.810;2023-08-17T21:05:48;23.20;55.30
42135;DHT22;28312;43.460;11.810;2023-08-17T21:09:53;23.10;55.30
42135;DHT22;28312;43.460;11.810;2023-08-17T21:13:56;23.10;55.40
42135;DHT22;28312;43.460;11.810;2023-08-17T21:18:00;23.00;55.60
42135;DHT22;28312;43.460;11.810;2023-08-17T21:22:04;22.90;55.60
42135;DHT22;28312;43.460;11.810;2023-08-17T21:26:08;22.90;55.70
42135;DHT22;28312;43.460;11.810;2023-08-17T21:30:12;22.80;55.70
42135;DHT22;28312;43.460;11.810;2023-08-17T21:34:16;22.70;55.80
42135;DHT22;28312;43.460;11.810;2023-08-17T21:38:23;22.70;56.00
42135;DHT22;28312;43.460;11.810;2023-08-17T21:42:27;22.60;56.10
42135;DHT22;28312;43.460;11.810;2023-08-17T21:46:30;22.60;56.20
42135;DHT22;28312;43.460;11.810;2023-08-17T21:50:36;22.50;56.40
42135;DHT22;28312;43.460;11.810;2023-08-17T21:54:40;22.40;56.60
42135;DHT22;28312;43.460;11.810;2023-08-17T21:58:44;22.20;56.70
42135;DHT22;28312;43.460;11.810;2023-08-17T22:02:49;22.20;56.70
42135;DHT22;28312;43.460;11.810;2023-08-17T22:06:53;22.10;56.90
42135;DHT22;28312;43.460;11.810;2023-08-17T22:10:57;22.00;57.10
42135;DHT22;28312;43.460;11.810;2023-08-17T22:15:00;22.00;57.10
42135;DHT22;28312;43.460;11.810;2023-08-17T22:19:04;22.00;57.30
42135;DHT22;28312;43.460;11.810;2023-08-17T22:23:08;21.90;57.40
42135;DHT22;28312;43.460;11.810;2023-08-17T22:27:11;21.80;57.60
42135;DHT22;28312;43.460;11.810;2023-08-17T22:31:15;21.70;57.60
42135;DHT22;28312;43.460;11.810;2023-08-17T22:35:19;21.70;57.80
42135;DHT22;28312;43.460;11.810;2023-08-17T22:39:23;21.70;57.90
42135;DHT22;28312;43.460;11.810;2023-08-17T22:43:26;21.70;57.90
42135;DHT22;28312;43.460;11.810;2023-08-17T22:47:30;21.60;57.90
42135;DHT22;28312;43.460;11.810;2023-08-17T22:51:34;21.60;58.10
42135;DHT22;28312;43.460;11.810;2023-08-17T22:55:38;21.60;58.10
42135;DHT22;28312;43.460;11.810;2023-08-17T22:59:41;21.60;58.20
42135;DHT22;28312;43.460;11.810;2023-08-17T23:03:45;21.50;58.30
42135;DHT22;28312;43.460;11.810;2023-08-17T23:07:48;21.50;58.40
42135;DHT22;28312;43.460;11.810;2023-08-17T23:11:52;21.50;58.40
42135;DHT22;28312;43.460;11.810;2023-08-17T23:15:55;21.50;58.50
42135;DHT22;28312;43.460;11.810;2023-08-17T23:19:59;21.50;58.50
42135;DHT22;28312;43.460;11.810;2023-08-17T23:24:02;21.40;58.50
42135;DHT22;28312;43.460;11.810;2023-08-17T23:28:06;21.40;58.70
42135;DHT22;28312;43.460;11.810;2023-08-17T23:32:10;21.20;58.80
42135;DHT22;28312;43.460;11.810;2023-08-17T23:36:29;21.20;58.90
42135;DHT22;28312;43.460;11.810;2023-08-17T23:40:33;21.20;58.90
42135;DHT22;28312;43.460;11.810;2023-08-17T23:44:40;21.20;59.00
42135;DHT22;28312;43.460;11.810;2023-08-17T23:48:45;21.20;59.00
42135;DHT22;28312;43.460;11.810;2023-08-17T23:52:48;21.20;59.20
42135;DHT22;28312;43.460;11.810;2023-08-17T23:56:51;21.20;59.20
